Time;durP1;ratioP1;P1;durP2;ratioP2;P2;SDS_P1;SDS_P2;PMS_P1;PMS_P2;Temp;Humidity;BMP_temperature;BMP_pressure;BME280_temperature;BME280_humidity;BME280_pressure;Samples;Min_cycle;Max_cycle;Signal;HPM_P1;HPM_P2
2023/03/09 00:00:27;;;;;;;;;1.00;0.83;;;;;12.20;68.50;99391.69;2029992;28;2737788;-74
2023/03/09 00:01:40;;;;;;;;;0.50;0.33;;;;;12.21;68.22;99389.91;2028646;28;2724263;-74
2023/03/09 00:02:53;;;;;;;;;0.00;0.00;;;;;12.19;68.44;99392.66;2048581;28;2731603;-74
2023/03/09 00:04:11;;;;;;;;;0.00;0.00;;;;;12.19;68.11;99397.06;2046510;28;2733635;-75
2023/03/09 00:05:25;;;;;;;;;0.00;0.00;;;;;12.17;68.02;99391.03;2050938;28;2722249;-74
2023/03/09 00:06:38;;;;;;;;;0.00;0.00;;;;;12.16;68.41;99403.38;2052185;27;2733583;-74
2023/03/09 00:07:53;;;;;;;;;1.00;1.00;;;;;12.16;67.80;99400.72;2053590;27;2741975;-74
2023/03/09 00:09:07;;;;;;;;;2.33;0.83;;;;;12.16;68.11;99411.25;2030629;27;2724219;-74
2023/03/09 00:10:21;;;;;;;;;0.33;0.33;;;;;12.15;68.23;99413.03;2053695;27;2725316;-74
2023/03/09 00:11:34;;;;;;;;;0.17;0.17;;;;;12.14;68.16;99410.50;2052659;28;2735674;-74
2023/03/09 00:12:47;;;;;;;;;1.00;0.00;;;;;12.14;68.20;99415.78;2052728;27;2730478;-74
2023/03/09 00:14:01;;;;;;;;;0.00;0.00;;;;;12.13;67.81;99407.03;2054543;28;2724244;-74
2023/03/09 00:15:14;;;;;;;;;0.67;0.00;;;;;12.15;68.32;99417.47;2054272;27;2727364;-74
2023/03/09 00:16:29;;;;;;;;;0.50;0.00;;;;;12.13;68.08;99417.56;2053053;27;2733588;-74
2023/03/09 00:17:44;;;;;;;;;0.00;0.00;;;;;12.15;67.66;99414.81;2030960;27;2730505;-75
2023/03/09 00:18:58;;;;;;;;;1.33;0.00;;;;;12.14;68.24;99424.53;2054038;27;2733601;-74
2023/03/09 00:20:17;;;;;;;;;1.00;1.00;;;;;12.13;67.77;99430.72;2054091;27;2733969;-74
2023/03/09 00:21:39;;;;;;;;;0.00;0.00;;;;;12.13;67.70;99437.78;2030539;28;2728386;-74
2023/03/09 00:22:54;;;;;;;;;0.00;0.00;;;;;12.12;67.89;99430.81;2030229;27;2733634;-74
2023/03/09 00:24:17;;;;;;;;;0.00;0.00;;;;;12.13;67.85;99435.16;2054017;28;2733595;-75
2023/03/09 00:25:30;;;;;;;;;2.33;0.17;;;;;12.12;67.67;99438.72;2054228;27;2731543;-74
2023/03/09 00:26:51;;;;;;;;;0.00;0.00;;;;;12.12;67.80;99438.72;2052780;28;2719040;-74
2023/03/09 00:28:05;;;;;;;;;0.67;0.00;;;;;12.11;67.67;99443.13;2053069;28;2728401;-74
2023/03/09 00:29:18;;;;;;;;;0.00;0.00;;;;;12.10;67.56;99446.69;2053700;27;2727340;-74
2023/03/09 00:30:31;;;;;;;;;0.67;0.17;;;;;12.10;67.96;99451.94;2029557;28;2729468;-74
2023/03/09 00:31:45;;;;;;;;;3.17;0.50;;;;;12.10;68.08;99444.06;2052809;27;2735685;-74
2023/03/09 00:32:58;;;;;;;;;3.00;0.17;;;;;12.09;67.85;99447.63;2050084;28;2733599;-74
2023/03/09 00:34:12;;;;;;;;;0.17;0.00;;;;;12.10;67.88;99456.41;2052770;28;2723183;-74
2023/03/09 00:35:26;;;;;;;;;2.00;0.83;;;;;12.10;67.84;99453.75;2059756;27;2725258;-74
2023/03/09 00:36:39;;;;;;;;;1.00;1.00;;;;;12.08;67.82;99453.84;2042122;28;2725254;-74
2023/03/09 00:37:52;;;;;;;;;0.83;0.17;;;;;12.09;67.89;99460.81;2026387;28;2733653;-74
2023/03/09 00:39:06;;;;;;;;;0.67;0.33;;;;;12.07;67.79;99464.47;2052824;27;2731512;-75
2023/03/09 00:40:19;;;;;;;;;0.67;0.00;;;;;12.09;68.12;99467.84;2053182;28;2727349;-74
2023/03/09 00:41:32;;;;;;;;;1.33;1.00;;;;;12.09;67.86;99467.84;2050900;28;2725296;-74
2023/03/09 00:42:46;;;;;;;;;0.00;0.00;;;;;12.07;68.03;99465.31;2049305;28;2727349;-74
2023/03/09 00:44:00;;;;;;;;;0.67;0.00;;;;;12.06;68.15;99468.03;2052801;28;2730470;-74
2023/03/09 00:45:15;;;;;;;;;0.00;0.00;;;;;12.05;67.81;99467.19;2022950;27;2731556;-74
2023/03/09 00:46:30;;;;;;;;;0.00;0.00;;;;;12.04;67.60;99471.63;2030127;27;2723167;-74
2023/03/09 00:47:43;;;;;;;;;0.00;0.00;;;;;12.04;67.59;99462.88;2052949;28;2727377;-74
2023/03/09 00:48:57;;;;;;;;;3.83;1.00;;;;;12.04;67.81;99478.66;2052683;27;2734640;-74
2023/03/09 00:50:11;;;;;;;;;1.33;0.00;;;;;12.03;67.80;99469.91;2029943;27;2731527;-74
2023/03/09 00:51:24;;;;;;;;;1.50;0.00;;;;;12.04;67.86;99478.66;2052872;28;2726296;-74
2023/03/09 00:52:37;;;;;;;;;0.00;0.00;;;;;12.03;67.31;99475.19;2051954;28;2731516;-74
2023/03/09 00:53:51;;;;;;;;;0.00;0.00;;;;;12.02;67.54;99475.28;2052382;27;2726311;-74
2023/03/09 00:55:05;;;;;;;;;0.17;0.17;;;;;12.02;67.44;99477.91;2061090;27;2728398;-74
2023/03/09 00:56:22;;;;;;;;;0.67;0.67;;;;;12.02;67.38;99477.91;2059884;27;2722150;-74
2023/03/09 00:57:35;;;;;;;;;0.83;0.83;;;;;12.02;67.21;99477.91;2053322;27;2726796;-74
2023/03/09 00:58:48;;;;;;;;;0.33;0.17;;;;;12.03;67.49;99482.22;2052213;28;2733591;-74
2023/03/09 01:00:03;;;;;;;;;0.00;0.00;;;;;12.02;66.61;99477.91;2052288;28;2721118;-74
2023/03/09 01:01:17;;;;;;;;;1.33;0.00;;;;;12.03;66.75;99479.59;2030076;27;2727337;-74
2023/03/09 01:02:30;;;;;;;;;0.50;0.00;;;;;12.03;66.71;99490.13;2025233;27;2733610;-74
2023/03/09 01:03:44;;;;;;;;;0.67;0.67;;;;;12.04;67.01;99491.84;2043693;28;2725286;-74
2023/03/09 01:04:57;;;;;;;;;0.17;0.17;;;;;12.03;67.33;99492.75;2046589;27;2727356;-74
2023/03/09 01:06:11;;;;;;;;;1.17;0.00;;;;;12.04;66.62;99492.69;2057445;27;2730478;-74
2023/03/09 01:07:25;;;;;;;;;0.17;0.00;;;;;12.03;67.04;99485.72;2044549;28;2728387;-74
2023/03/09 01:08:39;;;;;;;;;0.50;0.00;;;;;12.04;67.17;99494.47;2049679;28;2723525;-74
2023/03/09 01:09:52;;;;;;;;;1.00;0.33;;;;;12.03;67.21;99492.75;2053040;27;2733619;-74
2023/03/09 01:11:08;;;;;;;;;0.00;0.00;;;;;12.03;67.15;99492.75;2029320;27;2725281;-74
2023/03/09 01:12:22;;;;;;;;;0.00;0.00;;;;;12.03;67.13;99495.41;2053632;27;2726859;-74
2023/03/09 01:13:36;;;;;;;;;0.50;0.33;;;;;12.03;67.29;99495.41;2029202;28;2725647;-74
2023/03/09 01:14:53;;;;;;;;;0.00;0.00;;;;;12.02;66.44;99491.09;2052459;28;2729437;-74
2023/03/09 01:16:07;;;;;;;;;0.00;0.00;;;;;12.02;66.63;99499.84;2052065;28;2728371;-74
2023/03/09 01:17:21;;;;;;;;;0.00;0.00;;;;;12.02;66.71;99499.84;2053506;27;2725280;-74
2023/03/09 01:18:34;;;;;;;;;0.33;0.33;;;;;12.03;66.91;99519.09;2053042;28;2729448;-74
2023/03/09 01:19:47;;;;;;;;;2.00;1.00;;;;;12.01;66.99;99508.66;2052294;27;2735686;-74
2023/03/09 01:21:00;;;;;;;;;0.50;0.00;;;;;12.00;67.20;99517.50;2029892;27;2725257;-74
2023/03/09 01:22:14;;;;;;;;;0.17;0.17;;;;;11.99;67.22;99514.97;2053029;27;2733643;-74
2023/03/09 01:23:27;;;;;;;;;0.00;0.00;;;;;11.97;67.21;99507.16;2052521;27;2722140;-74
2023/03/09 01:24:40;;;;;;;;;1.33;0.00;;;;;11.97;67.12;99515.06;2053204;27;2729441;-74
2023/03/09 01:25:54;;;;;;;;;2.33;0.33;;;;;11.97;67.18;99511.56;2051573;28;2733972;-74
2023/03/09 01:27:09;;;;;;;;;0.00;0.00;;;;;11.97;67.35;99511.56;2018810;28;5522919;-74
2023/03/09 01:28:23;;;;;;;;;0.67;0.67;;;;;11.96;67.22;99513.34;2053139;27;2740332;-74
2023/03/09 01:29:36;;;;;;;;;1.33;0.33;;;;;11.94;67.08;99512.59;2030319;27;2726292;-74
2023/03/09 01:30:49;;;;;;;;;2.00;0.00;;;;;11.93;67.17;99511.75;2052194;28;2727368;-74
2023/03/09 01:32:02;;;;;;;;;3.00;0.67;;;;;11.92;67.19;99525.88;2054208;27;2729516;-74
2023/03/09 01:33:16;;;;;;;;;1.00;0.00;;;;;11.91;67.39;99529.41;2032588;27;2722149;-74
2023/03/09 01:34:29;;;;;;;;;2.00;0.00;;;;;11.89;67.25;99522.53;2045131;28;2735691;-74
2023/03/09 01:35:42;;;;;;;;;0.17;0.17;;;;;11.88;67.53;99521.69;2052039;28;2725341;-74
2023/03/09 01:36:55;;;;;;;;;0.00;0.00;;;;;11.87;67.28;99527.91;2044830;28;2733631;-74
2023/03/09 01:38:08;;;;;;;;;0.67;0.00;;;;;11.86;66.45;99526.19;2049549;28;2725265;-74
2023/03/09 01:39:22;;;;;;;;;1.83;0.50;;;;;11.85;67.01;99524.53;2046167;28;2737798;-74
2023/03/09 01:40:35;;;;;;;;;0.17;0.00;;;;;11.85;67.21;99529.78;2049672;27;2729432;-74
2023/03/09 01:41:48;;;;;;;;;0.33;0.33;;;;;11.85;67.24;99534.19;2053940;28;2727389;-74
2023/03/09 01:43:28;;;;;;;;;0.17;0.00;;;;;11.85;67.08;99545.59;2052470;27;2731546;-74
2023/03/09 01:44:41;;;;;;;;;0.50;0.00;;;;;11.84;67.23;99554.41;2050078;28;2724243;-74
2023/03/09 01:46:19;;;;;;;;;0.83;0.00;;;;;11.84;67.25;99537.75;2052543;28;2729472;-74
2023/03/09 01:47:32;;;;;;;;;0.00;0.00;;;;;11.84;67.12;99543.88;2052983;28;2727385;-74
2023/03/09 01:48:50;;;;;;;;;0.67;0.67;;;;;11.85;67.21;99547.38;2052017;28;2733599;-74
2023/03/09 01:50:05;;;;;;;;;1.83;0.67;;;;;11.83;67.49;99552.69;2023220;28;2739876;-74
2023/03/09 01:51:19;;;;;;;;;0.50;0.00;;;;;11.83;67.01;99555.34;2047265;28;2725258;-74
2023/03/09 01:52:33;;;;;;;;;1.83;0.00;;;;;11.84;66.45;99561.44;2053389;28;2726318;-74
2023/03/09 01:53:48;;;;;;;;;1.00;0.33;;;;;11.84;66.31;99556.19;2052058;28;2727345;-74
2023/03/09 01:55:14;;;;;;;;;0.50;0.00;;;;;11.85;65.98;99561.38;2030052;28;2729448;-74
2023/03/09 01:56:29;;;;;;;;;1.67;0.00;;;;;11.87;66.42;99550.75;2052776;28;2731504;-74
2023/03/09 01:58:08;;;;;;;;;1.67;0.67;;;;;11.87;66.99;99559.50;2053481;28;2727369;-74
2023/03/09 01:59:25;;;;;;;;;1.17;0.00;;;;;11.88;66.66;99565.59;2027412;28;2727349;-74
2023/03/09 02:00:44;;;;;;;;;0.50;0.50;;;;;11.90;66.77;99574.28;2051496;27;2738168;-74
2023/03/09 02:01:59;;;;;;;;;0.00;0.00;;;;;11.90;66.91;99567.22;2049927;27;2724623;-74
2023/03/09 02:03:16;;;;;;;;;1.33;1.17;;;;;11.91;67.03;99565.44;2044499;28;2725290;-74
2023/03/09 02:04:44;;;;;;;;;1.50;1.50;;;;;11.90;67.24;99575.09;2021322;28;2732562;-74
2023/03/09 02:06:13;;;;;;;;;0.67;0.67;;;;;11.89;66.75;99576.06;2029741;28;2733591;-74
2023/03/09 02:07:28;;;;;;;;;0.83;0.50;;;;;11.90;66.69;99564.56;2050830;28;2733594;-74
2023/03/09 02:08:58;;;;;;;;;1.00;1.00;;;;;11.91;66.67;99571.56;2053660;28;2730493;-74
2023/03/09 02:10:11;;;;;;;;;1.00;1.00;;;;;11.92;66.94;99567.13;2051628;27;2738825;-74
2023/03/09 02:11:24;;;;;;;;;1.67;0.67;;;;;11.91;66.76;99576.81;2030045;27;2727397;-74
2023/03/09 02:12:40;;;;;;;;;0.83;0.50;;;;;11.92;66.65;99572.41;2051057;27;2733591;-74
2023/03/09 02:13:54;;;;;;;;;0.83;0.83;;;;;11.90;66.38;99575.09;2053331;27;2731531;-74
2023/03/09 02:15:07;;;;;;;;;2.00;2.00;;;;;11.92;66.91;99573.25;2054924;27;2742447;-74
2023/03/09 02:16:21;;;;;;;;;2.67;1.00;;;;;11.95;66.68;99577.47;2030996;27;2727349;-74
2023/03/09 02:17:34;;;;;;;;;0.00;0.00;;;;;11.98;66.12;99576.44;2059947;27;2724236;-74
2023/03/09 02:18:47;;;;;;;;;1.67;0.00;;;;;11.99;65.21;99572.88;2053626;27;2721103;-74
2023/03/09 02:20:14;;;;;;;;;1.67;0.83;;;;;12.03;66.51;99579.66;2050980;28;2727405;-74
2023/03/09 02:21:36;;;;;;;;;0.17;0.17;;;;;12.04;65.38;99576.97;2023469;28;2737761;-74
2023/03/09 02:22:50;;;;;;;;;2.00;2.00;;;;;12.09;66.78;99576.69;2026559;28;2730474;-74
2023/03/09 02:24:22;;;;;;;;;1.00;1.00;;;;;12.11;66.49;99587.97;2045767;28;2734659;-74
2023/03/09 02:25:45;;;;;;;;;0.67;0.67;;;;;12.14;65.61;99573.81;2049471;28;2737769;-74
2023/03/09 02:27:15;;;;;;;;;1.33;1.00;;;;;12.15;66.52;99589.53;2030310;27;2730549;-74
2023/03/09 02:28:28;;;;;;;;;1.50;0.50;;;;;12.17;65.90;99596.50;2046667;28;2723163;-74
2023/03/09 02:29:42;;;;;;;;;0.00;0.00;;;;;12.19;66.33;99586.72;2061035;27;2729733;-74
2023/03/09 02:30:55;;;;;;;;;3.00;0.50;;;;;12.21;65.73;99582.19;2046542;28;2732592;-74
2023/03/09 02:32:09;;;;;;;;;2.50;0.33;;;;;12.23;65.81;99586.44;2026487;28;2726319;-74
2023/03/09 02:33:27;;;;;;;;;1.00;1.00;;;;;12.27;65.49;99592.41;2051548;27;2738262;-74
2023/03/09 02:34:40;;;;;;;;;1.33;0.17;;;;;12.30;65.50;99588.75;2031494;27;2731523;-74
2023/03/09 02:35:55;;;;;;;;;1.00;1.00;;;;;12.32;66.32;99592.94;2054106;27;2734679;-74
2023/03/09 02:37:22;;;;;;;;;2.33;1.00;;;;;12.35;66.32;99600.69;2031040;27;2735685;-74
2023/03/09 02:38:35;;;;;;;;;1.17;1.00;;;;;12.37;66.54;99595.34;2030528;27;2738814;-74
2023/03/09 02:39:50;;;;;;;;;2.83;1.00;;;;;12.38;66.49;99595.25;2030841;27;2740891;-74
2023/03/09 02:41:08;;;;;;;;;1.83;0.67;;;;;12.40;65.85;99595.13;2031631;27;2728399;-74
2023/03/09 02:42:21;;;;;;;;;1.50;0.83;;;;;12.41;65.70;99596.84;2030131;28;2737810;-74
2023/03/09 02:43:45;;;;;;;;;2.17;0.67;;;;;12.44;65.61;99599.31;2053048;28;2729468;-74
2023/03/09 02:44:59;;;;;;;;;1.67;1.00;;;;;12.45;66.37;99602.78;2028087;27;2732557;-74
2023/03/09 02:46:12;;;;;;;;;1.00;0.00;;;;;12.44;66.08;99599.31;2054664;27;2723580;-74
2023/03/09 02:47:25;;;;;;;;;1.33;1.00;;;;;12.45;66.52;99600.13;2054357;28;2729498;-74
2023/03/09 02:48:39;;;;;;;;;1.67;0.50;;;;;12.44;66.40;99593.19;2054830;28;2716936;-74
2023/03/09 02:49:52;;;;;;;;;1.67;0.33;;;;;12.42;66.15;99601.16;2054387;27;2731604;-74
2023/03/09 02:51:06;;;;;;;;;2.50;1.17;;;;;12.44;66.13;99616.91;2029825;27;2736466;-74
2023/03/09 02:52:19;;;;;;;;;0.00;0.00;;;;;12.42;66.08;99616.97;2029941;28;2730478;-74
2023/03/09 02:53:33;;;;;;;;;2.00;1.00;;;;;12.44;65.63;99614.28;2052994;28;2743047;-74
2023/03/09 02:54:46;;;;;;;;;1.50;1.00;;;;;12.45;65.83;99615.94;2053387;28;2740921;-74
2023/03/09 02:55:59;;;;;;;;;2.67;0.83;;;;;12.46;65.50;99609.75;2030823;28;2729440;-74
2023/03/09 02:57:13;;;;;;;;;0.67;0.50;;;;;12.47;64.92;99603.56;2053920;28;2727448;-74
2023/03/09 02:58:26;;;;;;;;;1.00;1.00;;;;;12.47;65.75;99622.81;2038440;28;2734099;-74
2023/03/09 02:59:39;;;;;;;;;2.00;0.17;;;;;12.48;65.67;99614.00;2028069;28;2727413;-74
2023/03/09 03:00:52;;;;;;;;;1.33;1.00;;;;;12.49;65.64;99614.84;2053551;28;2739860;-74
2023/03/09 03:02:06;;;;;;;;;1.33;1.00;;;;;12.49;65.56;99614.84;2025344;28;2737841;-74
2023/03/09 03:03:20;;;;;;;;;0.50;0.50;;;;;12.47;65.25;99614.09;2053764;28;2731519;-74
2023/03/09 03:04:33;;;;;;;;;3.50;1.00;;;;;12.48;65.19;99608.72;2054571;27;2729451;-74
2023/03/09 03:05:47;;;;;;;;;0.00;0.00;;;;;12.47;64.34;99604.38;2030946;27;2730474;-74
2023/03/09 03:07:01;;;;;;;;;1.50;1.00;;;;;12.50;65.77;99603.34;2054710;27;2724236;-73
2023/03/09 03:08:14;;;;;;;;;1.50;1.00;;;;;12.52;65.69;99612.00;2053315;27;2741940;-74
2023/03/09 03:09:28;;;;;;;;;1.50;1.00;;;;;12.53;65.84;99610.22;2031336;27;2726312;-74
2023/03/09 03:10:41;;;;;;;;;3.33;1.00;;;;;12.52;65.82;99617.28;2052462;28;2722133;-74
2023/03/09 03:11:54;;;;;;;;;5.83;1.83;;;;;12.51;65.56;99620.00;2044987;28;2735718;-74
2023/03/09 03:13:08;;;;;;;;;2.00;1.00;;;;;12.50;65.65;99616.53;2052232;28;2727353;-74
2023/03/09 03:14:21;;;;;;;;;0.50;0.17;;;;;12.51;65.29;99625.28;2030546;27;2737776;-74
2023/03/09 03:15:34;;;;;;;;;3.33;2.00;;;;;12.51;65.73;99620.88;2052513;28;2735701;-74
2023/03/09 03:16:47;;;;;;;;;1.17;1.00;;;;;12.51;65.83;99626.13;2030321;28;2733618;-74
2023/03/09 03:18:01;;;;;;;;;2.00;2.00;;;;;12.50;65.48;99624.44;2051770;28;2733603;-74
2023/03/09 03:19:14;;;;;;;;;1.50;0.67;;;;;12.50;65.29;99624.44;2030863;27;2727393;-74
2023/03/09 03:20:27;;;;;;;;;2.17;0.83;;;;;12.51;65.53;99630.56;2030663;28;2736783;-74
2023/03/09 03:21:40;;;;;;;;;2.00;0.83;;;;;12.51;65.71;99630.56;2054583;27;2731952;-74
2023/03/09 03:22:53;;;;;;;;;2.17;1.00;;;;;12.51;66.00;99636.69;2053360;27;2733618;-74
2023/03/09 03:24:07;;;;;;;;;1.67;0.83;;;;;12.51;65.52;99635.81;2030883;27;2735690;-74
2023/03/09 03:25:20;;;;;;;;;4.17;2.33;;;;;12.52;65.37;99632.28;2052855;28;2748221;-74
2023/03/09 03:26:33;;;;;;;;;0.83;0.83;;;;;12.52;65.61;99643.63;2028759;28;2729472;-74
2023/03/09 03:27:46;;;;;;;;;2.67;1.00;;;;;12.52;65.84;99641.00;2048147;28;2732006;-74
2023/03/09 03:29:00;;;;;;;;;1.33;0.00;;;;;12.52;66.01;99638.34;2031261;27;2725270;-74
2023/03/09 03:30:14;;;;;;;;;6.00;2.00;;;;;12.53;65.47;99649.75;2029822;27;2733622;-74
2023/03/09 03:31:28;;;;;;;;;1.83;1.00;;;;;12.52;65.83;99635.72;2029903;27;2735706;-74
2023/03/09 03:32:41;;;;;;;;;2.83;1.00;;;;;12.51;65.29;99647.22;2053669;28;2728396;-74
2023/03/09 03:33:54;;;;;;;;;1.50;1.50;;;;;12.51;65.48;99641.94;2022171;28;2728434;-74
2023/03/09 03:35:08;;;;;;;;;2.00;1.00;;;;;12.52;65.56;99656.81;2052774;28;2731516;-74
2023/03/09 03:36:21;;;;;;;;;0.83;0.17;;;;;12.51;65.97;99652.50;2053906;27;2729451;-74
2023/03/09 03:37:34;;;;;;;;;4.00;0.67;;;;;12.51;65.26;99647.22;2029105;27;2736051;-74
2023/03/09 03:38:47;;;;;;;;;4.17;0.83;;;;;12.51;65.44;99647.22;2029947;28;2739852;-74
2023/03/09 03:40:01;;;;;;;;;3.33;1.67;;;;;12.53;65.52;99660.31;2030088;27;2741939;-74
2023/03/09 03:41:15;;;;;;;;;0.50;0.50;;;;;12.54;65.91;99662.00;2052283;28;2737769;-74
2023/03/09 03:42:28;;;;;;;;;0.00;0.00;;;;;12.52;65.23;99654.19;2053460;28;2731532;-74
2023/03/09 03:43:41;;;;;;;;;1.00;1.00;;;;;12.54;65.21;99660.22;2030480;28;2727365;-74
2023/03/09 03:44:54;;;;;;;;;4.67;1.33;;;;;12.54;65.07;99668.13;2028388;27;2734679;-74
2023/03/09 03:46:08;;;;;;;;;1.00;0.33;;;;;12.55;65.02;99659.28;2029934;28;2725765;-74
2023/03/09 03:47:21;;;;;;;;;2.00;0.50;;;;;12.56;64.72;99660.13;2054058;27;2738111;-74
2023/03/09 03:48:34;;;;;;;;;3.00;0.00;;;;;12.57;65.41;99656.53;2029714;27;2729457;-74
2023/03/09 03:49:47;;;;;;;;;2.00;2.00;;;;;12.58;65.91;99659.09;2053591;27;2741931;-74
2023/03/09 03:51:00;;;;;;;;;4.17;1.00;;;;;12.59;65.87;99662.59;2053141;27;2746105;-74
2023/03/09 03:52:14;;;;;;;;;2.00;1.00;;;;;12.60;65.61;99661.63;2030687;27;2724239;-74
2023/03/09 03:53:27;;;;;;;;;0.83;0.83;;;;;12.62;64.80;99667.66;2054701;27;2725785;-74
2023/03/09 03:54:40;;;;;;;;;3.00;2.00;;;;;12.65;65.51;99674.53;2049161;27;2748200;-74
2023/03/09 03:55:53;;;;;;;;;3.50;1.50;;;;;12.65;65.68;99682.44;2029576;28;2734687;-74
2023/03/09 03:57:06;;;;;;;;;1.50;1.50;;;;;12.67;65.51;99672.66;2030596;27;2739860;-74
2023/03/09 03:58:20;;;;;;;;;2.17;1.00;;;;;12.67;64.79;99683.22;2030663;27;2733587;-74
2023/03/09 03:59:33;;;;;;;;;4.83;1.67;;;;;12.68;65.47;99679.66;2030488;27;2735683;-74
2023/03/09 04:00:46;;;;;;;;;2.33;2.00;;;;;12.69;65.91;99681.34;2053904;27;2730506;-74
2023/03/09 04:01:59;;;;;;;;;1.17;1.17;;;;;12.70;65.61;99685.66;2060836;27;2737757;-74
2023/03/09 04:03:12;;;;;;;;;2.67;2.00;;;;;12.71;66.04;99682.09;2016424;28;2750277;-74
2023/03/09 04:04:26;;;;;;;;;4.67;2.00;;;;;12.71;65.92;99675.06;2024962;28;2731595;-74
2023/03/09 04:05:40;;;;;;;;;1.00;1.00;;;;;12.72;65.48;99670.59;2030992;28;2727864;-74
2023/03/09 04:06:53;;;;;;;;;1.50;1.50;;;;;12.74;65.19;99684.53;2045419;28;2735777;-74
2023/03/09 04:08:07;;;;;;;;;1.17;1.17;;;;;12.74;65.90;99683.72;2023219;28;2732586;-74
2023/03/09 04:09:20;;;;;;;;;1.00;1.00;;;;;12.76;65.45;99685.31;2021103;28;2734656;-74
2023/03/09 04:10:33;;;;;;;;;3.67;2.00;;;;;12.76;66.05;99685.31;2022457;28;2740894;-74
2023/03/09 04:11:46;;;;;;;;;3.00;2.00;;;;;12.78;66.01;99690.50;2026642;28;2739888;-74
2023/03/09 04:13:00;;;;;;;;;4.17;2.00;;;;;12.78;65.97;99695.78;2024711;28;2742447;-74
2023/03/09 04:14:13;;;;;;;;;2.00;1.17;;;;;12.78;66.10;99696.63;2028753;28;2731512;-74
2023/03/09 04:15:26;;;;;;;;;1.83;1.33;;;;;12.77;66.36;99689.63;2020912;28;2734664;-74
2023/03/09 04:16:39;;;;;;;;;1.67;1.00;;;;;12.77;65.39;99689.63;2046346;28;2727348;-74
2023/03/09 04:17:52;;;;;;;;;1.17;0.83;;;;;12.76;64.92;99692.38;2053195;28;2721111;-74
2023/03/09 04:19:06;;;;;;;;;3.17;1.17;;;;;12.77;65.35;99700.19;2052534;27;2741951;-74
2023/03/09 04:20:19;;;;;;;;;1.33;1.33;;;;;12.76;65.15;99698.50;2029767;28;2748182;-74
2023/03/09 04:21:32;;;;;;;;;3.33;1.17;;;;;12.78;65.43;99698.41;2052141;27;2739841;-74
2023/03/09 04:22:48;;;;;;;;;3.17;1.17;;;;;12.78;65.55;99691.34;2029503;28;2737786;-74
2023/03/09 04:24:01;;;;;;;;;1.50;1.17;;;;;12.80;65.48;99699.16;2046841;28;2726296;-74
2023/03/09 04:25:15;;;;;;;;;1.17;1.00;;;;;12.79;65.67;99700.94;2020420;28;2739901;-74
2023/03/09 04:26:28;;;;;;;;;0.83;0.17;;;;;12.79;65.58;99698.31;2053791;28;2724704;-74
2023/03/09 04:27:42;;;;;;;;;3.17;1.33;;;;;12.79;65.57;99695.66;2052694;27;2746488;-74
2023/03/09 04:28:55;;;;;;;;;3.00;1.00;;;;;12.78;64.79;99701.91;2030274;27;2735729;-74
2023/03/09 04:30:10;;;;;;;;;1.50;1.00;;;;;12.80;64.41;99699.16;2052849;27;2731534;-74
2023/03/09 04:31:23;;;;;;;;;3.00;1.00;;;;;12.81;65.60;99703.50;2030643;27;2723175;-74
2023/03/09 04:32:37;;;;;;;;;2.00;1.33;;;;;12.79;65.47;99703.56;2029400;28;2734684;-74
2023/03/09 04:33:50;;;;;;;;;5.00;1.50;;;;;12.80;64.95;99707.94;2044004;28;2727387;-74
2023/03/09 04:35:00;;;;;;;;;2.00;2.00;;;;;12.81;65.49;99708.78;1999382;28;2751708;-74
2023/03/09 04:36:11;;;;;;;;;1.67;1.67;;;;;12.83;65.00;99720.09;2046672;28;2729448;-74
2023/03/09 04:37:25;;;;;;;;;1.17;0.17;;;;;12.85;64.08;99714.72;2045061;28;2735730;-74
2023/03/09 04:38:38;;;;;;;;;2.33;2.00;;;;;12.86;64.55;99714.63;2020865;28;2750270;-74
2023/03/09 04:39:51;;;;;;;;;1.83;1.17;;;;;12.88;65.16;99717.16;2024605;28;2728411;-74
2023/03/09 04:41:04;;;;;;;;;1.00;1.00;;;;;12.88;65.36;99718.03;2030384;27;2729488;-74
2023/03/09 04:42:17;;;;;;;;;3.17;0.50;;;;;12.90;64.92;99721.41;2053204;27;2735729;-74
2023/03/09 04:43:31;;;;;;;;;3.50;1.00;;;;;12.91;65.24;99722.28;2029999;27;2730470;-74
2023/03/09 04:44:44;;;;;;;;;3.83;1.33;;;;;12.92;65.41;99718.66;2027986;28;2728471;-74
2023/03/09 04:45:57;;;;;;;;;7.00;2.00;;;;;12.92;65.94;99710.75;2051681;28;2739927;-74
2023/03/09 04:47:14;;;;;;;;;2.83;1.33;;;;;12.94;64.78;99716.78;2030134;28;2728402;-74
2023/03/09 04:48:28;;;;;;;;;1.83;1.00;;;;;12.92;64.93;99723.94;2053467;27;2733627;-74
2023/03/09 04:49:41;;;;;;;;;0.00;0.00;;;;;12.93;64.13;99721.25;2024758;28;2726312;-74
2023/03/09 04:50:54;;;;;;;;;4.50;1.17;;;;;12.94;64.54;99722.06;2046052;28;2745096;-74
2023/03/09 04:52:08;;;;;;;;;3.83;1.17;;;;;12.96;64.88;99725.50;2029373;27;2730524;-74
2023/03/09 04:53:21;;;;;;;;;1.33;0.83;;;;;12.97;65.24;99726.31;2030080;27;2735681;-74
2023/03/09 04:54:34;;;;;;;;;2.00;2.00;;;;;12.97;64.85;99728.94;2022570;27;2736795;-74
2023/03/09 04:55:48;;;;;;;;;4.50;2.00;;;;;12.98;65.27;99731.50;2022978;28;2748212;-74
2023/03/09 04:57:01;;;;;;;;;4.50;2.00;;;;;12.99;64.95;99735.00;2029249;28;2731523;-74
2023/03/09 04:58:14;;;;;;;;;1.00;0.00;;;;;12.99;64.52;99730.56;2053699;28;2723549;-74
2023/03/09 04:59:27;;;;;;;;;1.83;1.83;;;;;13.00;64.06;99732.28;2029102;27;2736095;-74
2023/03/09 05:00:40;;;;;;;;;2.83;1.33;;;;;13.02;65.11;99729.53;2030043;27;2724235;-74
2023/03/09 05:01:54;;;;;;;;;2.17;1.67;;;;;13.01;65.43;99736.59;2028339;27;2736724;-74
2023/03/09 05:03:07;;;;;;;;;2.17;2.00;;;;;13.02;65.03;99733.03;2052858;27;2736763;-74
2023/03/09 05:04:20;;;;;;;;;2.67;2.33;;;;;13.01;65.15;99736.59;2048031;27;2736722;-74
2023/03/09 05:05:33;;;;;;;;;2.83;1.67;;;;;12.99;65.52;99741.09;2022705;28;2736727;-74
2023/03/09 05:06:47;;;;;;;;;5.67;1.17;;;;;12.97;65.55;99745.63;2028965;27;2731548;-74
2023/03/09 05:08:00;;;;;;;;;4.33;1.67;;;;;12.96;66.03;99756.28;2030282;27;2731515;-74
2023/03/09 05:09:13;;;;;;;;;4.33;2.17;;;;;12.94;65.58;99759.84;2051677;27;2744015;-74
2023/03/09 05:10:26;;;;;;;;;1.83;1.83;;;;;12.91;65.68;99752.09;2053713;28;2733606;-74
2023/03/09 05:11:39;;;;;;;;;3.00;1.17;;;;;12.90;66.07;99757.47;2028873;27;2744015;-74
2023/03/09 05:12:53;;;;;;;;;3.17;1.83;;;;;12.88;65.80;99756.72;2029312;27;2731511;-74
2023/03/09 05:14:06;;;;;;;;;2.17;1.83;;;;;12.86;66.01;99756.81;2052569;27;2739880;-74
2023/03/09 05:15:19;;;;;;;;;2.83;1.00;;;;;12.86;65.91;99767.38;2029960;28;2729519;-74
2023/03/09 05:16:32;;;;;;;;;1.00;1.00;;;;;12.85;65.73;99764.81;2052688;27;2733603;-74
2023/03/09 05:17:45;;;;;;;;;1.17;1.17;;;;;12.84;65.60;99758.69;2028530;27;2737777;-74
2023/03/09 05:18:59;;;;;;;;;0.50;0.50;;;;;12.82;65.35;99756.16;2025789;28;2736792;-74
2023/03/09 05:20:13;;;;;;;;;2.67;0.00;;;;;12.83;65.23;99751.72;2021646;28;2727337;-74
2023/03/09 05:21:23;;;;;;;;;5.33;1.67;;;;;12.84;64.99;99758.69;1999750;28;2745087;-74
2023/03/09 05:22:34;;;;;;;;;7.00;1.67;;;;;12.85;65.13;99751.63;2040776;28;3458637;-74
2023/03/09 05:23:46;;;;;;;;;0.75;0.00;;;;;12.85;63.90;99760.38;2051521;28;2733643;-74
2023/03/09 05:24:59;;;;;;;;;1.67;1.67;;;;;12.86;65.02;99761.25;2052445;28;2738280;-74
2023/03/09 05:26:12;;;;;;;;;2.67;1.00;;;;;12.89;65.18;99761.06;2029230;28;2729432;-74
2023/03/09 05:27:25;;;;;;;;;4.33;1.00;;;;;12.88;65.30;99760.22;2052570;28;2732604;-74
2023/03/09 05:28:40;;;;;;;;;2.83;1.67;;;;;12.90;65.33;99760.97;2029517;28;2736735;-74
2023/03/09 05:29:53;;;;;;;;;1.67;1.00;;;;;12.91;65.15;99754.75;2053556;27;2727341;-74
2023/03/09 05:31:11;;;;;;;;;2.50;1.83;;;;;12.93;65.47;99768.72;2047009;27;2737808;-74
2023/03/09 05:32:25;;;;;;;;;1.33;1.33;;;;;12.94;65.85;99759.00;2024741;28;2737804;-74
2023/03/09 05:33:38;;;;;;;;;3.00;1.83;;;;;12.94;66.02;99756.34;2028969;27;2746139;-74
2023/03/09 05:34:51;;;;;;;;;3.67;1.17;;;;;12.94;65.93;99753.72;2029811;28;2737766;-74
2023/03/09 05:36:19;;;;;;;;;2.00;2.00;;;;;12.93;65.58;99763.44;2053024;28;2738900;-74
2023/03/09 05:37:33;;;;;;;;;3.50;1.67;;;;;12.91;65.94;99764.47;2031704;27;2734644;-74
2023/03/09 05:38:48;;;;;;;;;2.17;1.00;;;;;12.91;65.94;99759.19;2051255;28;2729460;-74
2023/03/09 05:40:01;;;;;;;;;2.83;1.17;;;;;12.89;65.63;99758.44;2044620;28;2738803;-74
2023/03/09 05:41:11;;;;;;;;;7.33;2.00;;;;;12.88;66.04;99760.22;2001655;28;2754466;-74
2023/03/09 05:42:22;;;;;;;;;4.67;1.00;;;;;12.88;64.83;99754.94;2051414;28;2733614;-74